createdAt,value
2023-04-06T00:00:24.176Z,5.03
2023-04-06T00:03:10.848Z,5.23
2023-04-06T00:05:57.690Z,5.27
2023-04-06T00:08:45.664Z,5.93
2023-04-06T00:11:33.650Z,5.17
2023-04-06T00:14:20.446Z,5.37
2023-04-06T00:17:06.927Z,5.40
2023-04-06T00:19:53.750Z,5.83
2023-04-06T00:22:39.977Z,5.13
2023-04-06T00:25:26.631Z,5.27
2023-04-06T00:28:14.773Z,5.37
2023-04-06T00:31:01.438Z,5.10
2023-04-06T00:33:47.847Z,5.30
2023-04-06T00:36:34.311Z,5.10
2023-04-06T00:39:21.315Z,4.87
2023-04-06T00:42:12.790Z,5.00
2023-04-06T00:45:02.355Z,5.17
2023-04-06T00:47:48.910Z,5.00
2023-04-06T00:50:35.495Z,4.47
2023-04-06T00:53:22.700Z,4.93
2023-04-06T00:56:10.806Z,4.27
2023-04-06T00:58:57.941Z,5.27
2023-04-06T01:01:45.901Z,4.60
2023-04-06T01:04:33.267Z,4.90
2023-04-06T01:07:20.195Z,4.60
2023-04-06T01:10:07.437Z,4.50
2023-04-06T01:12:54.002Z,4.93
2023-04-06T01:15:40.935Z,4.67
2023-04-06T01:18:32.315Z,4.77
2023-04-06T01:21:19.176Z,4.73
2023-04-06T01:24:08.347Z,4.80
2023-04-06T01:26:55.056Z,4.50
2023-04-06T01:29:42.539Z,4.67
2023-04-06T01:32:29.044Z,4.70
2023-04-06T01:35:16.369Z,4.53
2023-04-06T01:38:03.065Z,4.87
2023-04-06T01:40:51.341Z,4.57
2023-04-06T01:43:38.037Z,4.17
2023-04-06T01:46:24.358Z,4.70
2023-04-06T01:49:10.767Z,4.33
2023-04-06T01:51:57.215Z,4.27
2023-04-06T01:54:43.700Z,5.13
2023-04-06T01:57:31.682Z,4.50
2023-04-06T02:00:18.633Z,4.70
2023-04-06T02:03:05.505Z,4.77
2023-04-06T02:05:52.071Z,4.50
2023-04-06T02:08:38.687Z,4.50
2023-04-06T02:11:25.542Z,4.20
2023-04-06T02:14:13.129Z,4.70
2023-04-06T02:16:59.951Z,4.33
2023-04-06T02:19:46.425Z,4.73
2023-04-06T02:22:32.775Z,4.50
2023-04-06T02:25:19.263Z,4.70
2023-04-06T02:28:06.329Z,4.83
2023-04-06T02:30:54.419Z,4.30
2023-04-06T02:33:41.063Z,4.30
2023-04-06T02:36:27.490Z,4.50
2023-04-06T02:39:14.580Z,4.37
2023-04-06T02:42:01.196Z,4.53
2023-04-06T02:44:47.782Z,4.50
2023-04-06T02:47:35.780Z,3.93
2023-04-06T02:50:22.601Z,4.47
2023-04-06T02:53:09.139Z,4.47
2023-04-06T02:55:56.950Z,4.10
2023-04-06T02:58:43.718Z,4.33
2023-04-06T03:01:30.325Z,3.93
2023-04-06T03:04:18.704Z,4.57
2023-04-06T03:07:05.392Z,4.33
2023-04-06T03:09:51.895Z,3.97
2023-04-06T03:12:38.350Z,3.90
2023-04-06T03:15:24.890Z,4.50
2023-04-06T03:18:11.480Z,4.13
2023-04-06T03:21:01.216Z,4.20
2023-04-06T03:23:49.517Z,3.63
2023-04-06T03:26:36.233Z,4.00
2023-04-06T03:29:22.773Z,4.17
2023-04-06T03:32:10.934Z,3.83
2023-04-06T03:34:57.808Z,3.97
2023-04-06T03:37:45.657Z,5.00
2023-04-06T03:40:32.265Z,3.77
2023-04-06T03:43:18.910Z,4.20
2023-04-06T03:46:05.370Z,4.00
2023-04-06T03:48:52.281Z,4.37
2023-04-06T03:51:38.976Z,4.43
2023-04-06T03:54:26.929Z,3.93
2023-04-06T03:57:13.490Z,4.57
2023-04-06T04:00:00.007Z,4.60
2023-04-06T04:02:46.492Z,3.97
2023-04-06T04:05:33.297Z,4.43
2023-04-06T04:08:19.797Z,4.23
2023-04-06T04:11:07.633Z,3.80
2023-04-06T04:13:54.205Z,3.90
2023-04-06T04:16:42.397Z,3.90
2023-04-06T04:19:29.132Z,4.00
2023-04-06T04:22:15.605Z,4.20
2023-04-06T04:25:02.129Z,4.20
2023-04-06T04:27:49.951Z,4.20
2023-04-06T04:30:36.450Z,4.27
2023-04-06T04:33:22.861Z,4.63
2023-04-06T04:36:11.111Z,4.57
2023-04-06T04:38:59.270Z,4.63
2023-04-06T04:41:45.755Z,4.90
2023-04-06T04:44:33.552Z,4.90
2023-04-06T04:47:19.927Z,5.10
2023-04-06T04:50:07.339Z,5.17
2023-04-06T04:52:53.769Z,5.30
2023-04-06T04:55:40.109Z,5.00
2023-04-06T04:58:26.543Z,5.23
2023-04-06T05:01:14.467Z,6.07
2023-04-06T05:04:01.381Z,5.70
2023-04-06T05:06:47.704Z,6.30
2023-04-06T05:09:34.202Z,5.93
2023-04-06T05:12:21.619Z,6.30
2023-04-06T05:15:09.009Z,6.13
2023-04-06T05:17:56.935Z,6.10
2023-04-06T05:20:44.571Z,5.80
2023-04-06T05:23:31.308Z,6.83
2023-04-06T05:26:17.953Z,7.33
2023-04-06T05:29:04.743Z,7.60
2023-04-06T05:31:52.704Z,8.33
2023-04-06T05:34:40.783Z,7.80
2023-04-06T05:37:27.386Z,7.17
2023-04-06T05:40:14.050Z,7.07
2023-04-06T05:43:00.682Z,6.57
2023-04-06T05:45:47.474Z,6.63
2023-04-06T05:48:34.464Z,6.87
2023-04-06T05:51:22.266Z,6.87
2023-04-06T05:54:08.857Z,6.50
2023-04-06T05:56:55.292Z,6.73
2023-04-06T05:59:41.885Z,6.67
2023-04-06T06:02:28.388Z,5.90
2023-04-06T06:05:15.553Z,6.00
2023-04-06T06:08:03.801Z,6.57
2023-04-06T06:10:50.416Z,6.33
2023-04-06T06:13:37.266Z,7.17
2023-04-06T06:16:24.261Z,6.23
2023-04-06T06:19:11.400Z,6.53
2023-04-06T06:21:57.788Z,6.37
2023-04-06T06:24:45.486Z,5.57
2023-04-06T06:27:32.116Z,5.03
2023-04-06T06:30:20.428Z,4.47
2023-04-06T06:33:09.051Z,3.50
2023-04-06T06:35:55.883Z,4.10
2023-04-06T06:38:42.877Z,4.23
2023-04-06T06:41:30.765Z,4.17
2023-04-06T06:44:18.367Z,4.03
2023-04-06T06:47:05.183Z,3.67
2023-04-06T06:49:51.594Z,3.77
2023-04-06T06:52:38.073Z,3.47
2023-04-06T06:55:24.531Z,3.37
2023-04-06T06:58:12.399Z,3.27
2023-04-06T07:00:59.807Z,3.57
2023-04-06T07:03:46.349Z,3.77
2023-04-06T07:06:33.319Z,4.00
2023-04-06T07:09:19.819Z,4.20
2023-04-06T07:12:06.434Z,3.77
2023-04-06T07:14:54.500Z,3.83
2023-04-06T07:17:42.335Z,3.47
2023-04-06T07:20:30.066Z,3.10
2023-04-06T07:23:16.659Z,3.70
2023-04-06T07:26:03.196Z,3.77
2023-04-06T07:28:49.742Z,3.50
2023-04-06T07:31:37.552Z,4.07
2023-04-06T07:34:24.501Z,3.73
2023-04-06T07:37:10.818Z,3.60
2023-04-06T07:39:57.325Z,3.67
2023-04-06T07:42:43.721Z,3.97
2023-04-06T07:45:30.299Z,3.93
2023-04-06T07:48:18.009Z,4.10
2023-04-06T07:51:05.157Z,3.57
2023-04-06T07:53:53.192Z,3.90
2023-04-06T07:56:39.830Z,4.00
2023-04-06T07:59:26.551Z,4.00
2023-04-06T08:02:13.136Z,4.13
2023-04-06T08:05:00.930Z,3.60
2023-04-06T08:07:47.581Z,3.80
2023-04-06T08:10:35.507Z,3.90
2023-04-06T08:13:22.097Z,3.87
2023-04-06T08:16:09.120Z,3.80
2023-04-06T08:18:56.210Z,4.53
2023-04-06T08:21:44.126Z,4.27
2023-04-06T08:24:31.912Z,3.90
2023-04-06T08:27:18.334Z,4.00
2023-04-06T08:30:05.091Z,3.80
2023-04-06T08:32:51.945Z,3.63
2023-04-06T08:35:38.964Z,4.03
2023-04-06T08:38:27.424Z,4.10
2023-04-06T08:41:15.349Z,3.90
2023-04-06T08:44:03.466Z,3.53
2023-04-06T08:46:51.820Z,4.43
2023-04-06T08:49:39.865Z,4.07
2023-04-06T08:52:28.802Z,3.90
2023-04-06T08:55:17.013Z,4.60
2023-04-06T08:58:03.814Z,4.20
2023-04-06T09:00:51.703Z,4.33
2023-04-06T09:03:41.395Z,4.07
2023-04-06T09:06:29.170Z,3.93
2023-04-06T09:09:16.315Z,4.37
2023-04-06T09:12:07.027Z,4.50
2023-04-06T09:14:54.138Z,4.63
2023-04-06T09:17:40.863Z,4.40
2023-04-06T09:20:29.180Z,4.63
2023-04-06T09:23:20.216Z,3.97
2023-04-06T09:26:08.942Z,4.47
2023-04-06T09:28:59.002Z,4.10
2023-04-06T09:31:45.774Z,4.80
2023-04-06T09:34:32.854Z,4.20
2023-04-06T09:37:20.924Z,4.27
2023-04-06T09:40:09.201Z,5.40
2023-04-06T09:42:58.648Z,5.10
2023-04-06T09:45:48.336Z,4.73
2023-04-06T09:48:37.321Z,4.50
2023-04-06T09:51:24.600Z,4.60
2023-04-06T09:54:13.821Z,4.87
2023-04-06T09:57:08.273Z,5.13
2023-04-06T10:00:09.341Z,5.27
2023-04-06T10:03:01.945Z,5.30
2023-04-06T10:05:52.842Z,5.20
2023-04-06T10:08:42.444Z,4.63
2023-04-06T10:11:29.558Z,4.83
2023-04-06T10:14:16.821Z,5.00
2023-04-06T10:17:05.301Z,4.80
2023-04-06T10:19:59.024Z,5.43
2023-04-06T10:22:53.745Z,5.83
2023-04-06T10:25:40.678Z,5.40
2023-04-06T10:28:32.311Z,5.93
2023-04-06T10:31:27.175Z,6.00
2023-04-06T10:34:15.598Z,5.90
2023-04-06T10:37:13.178Z,6.10
2023-04-06T10:39:59.737Z,6.30
2023-04-06T10:42:46.190Z,6.23
2023-04-06T10:45:34.094Z,6.97
2023-04-06T10:48:21.460Z,6.50
2023-04-06T10:51:11.664Z,6.83
2023-04-06T10:54:01.509Z,7.27
2023-04-06T10:56:48.103Z,6.60
2023-04-06T10:59:35.101Z,6.87
2023-04-06T11:02:22.794Z,7.83
2023-04-06T11:05:10.066Z,7.17
2023-04-06T11:07:56.520Z,6.67
2023-04-06T11:10:44.672Z,6.13
2023-04-06T11:13:39.823Z,7.07
2023-04-06T11:16:28.160Z,6.60
2023-04-06T11:19:14.829Z,6.83
2023-04-06T11:22:09.401Z,6.97
2023-04-06T11:25:06.407Z,6.87
2023-04-06T11:27:54.539Z,6.63
2023-04-06T11:30:41.264Z,7.03
2023-04-06T11:33:27.856Z,6.67
2023-04-06T11:36:16.713Z,7.70
2023-04-06T11:39:05.342Z,7.53
2023-04-06T11:41:52.589Z,7.23
2023-04-06T11:44:43.611Z,7.43
2023-04-06T11:47:31.311Z,7.53
2023-04-06T11:50:18.238Z,7.33
2023-04-06T11:53:05.130Z,7.40
2023-04-06T11:55:51.887Z,8.23
2023-04-06T11:58:38.534Z,7.67
2023-04-06T12:01:26.879Z,8.67
2023-04-06T12:04:13.363Z,7.97
2023-04-06T12:07:00.426Z,8.07
2023-04-06T12:09:47.110Z,8.13
2023-04-06T12:12:33.504Z,8.63
2023-04-06T12:15:20.059Z,8.60
2023-04-06T12:18:08.439Z,8.27
2023-04-06T12:20:55.017Z,8.53
2023-04-06T12:23:41.662Z,7.63
2023-04-06T12:26:28.667Z,7.83
2023-04-06T12:29:15.141Z,7.97
2023-04-06T12:32:03.017Z,7.87
2023-04-06T12:34:51.376Z,8.20
2023-04-06T12:37:38.033Z,8.07
2023-04-06T12:40:24.478Z,7.47
2023-04-06T12:43:11.073Z,7.77
2023-04-06T12:45:57.591Z,7.37
2023-04-06T12:48:44.026Z,7.77
2023-04-06T12:51:32.818Z,8.07
2023-04-06T12:54:19.462Z,7.77
2023-04-06T12:57:06.092Z,7.70
2023-04-06T12:59:53.946Z,7.27
2023-04-06T13:02:40.593Z,7.83
2023-04-06T13:05:29.063Z,7.20
2023-04-06T13:08:19.067Z,7.80
2023-04-06T13:11:05.879Z,8.20
2023-04-06T13:13:52.635Z,8.47
2023-04-06T13:16:39.243Z,8.43
2023-04-06T13:19:26.406Z,6.90
2023-04-06T13:22:12.869Z,7.10
2023-04-06T13:25:00.729Z,7.47
2023-04-06T13:27:49.670Z,7.30
2023-04-06T13:30:36.612Z,7.73
2023-04-06T13:33:23.245Z,8.07
2023-04-06T13:36:10.055Z,6.77
2023-04-06T13:38:57.254Z,7.87
2023-04-06T13:41:45.049Z,7.57
2023-04-06T13:44:31.510Z,7.50
2023-04-06T13:47:17.952Z,6.70
2023-04-06T13:50:05.466Z,7.60
2023-04-06T13:52:51.950Z,7.80
2023-04-06T13:55:38.338Z,7.53
2023-04-06T13:58:26.565Z,7.20
2023-04-06T14:01:13.301Z,7.40
2023-04-06T14:04:00.289Z,7.57
2023-04-06T14:06:47.709Z,7.43
2023-04-06T14:09:34.374Z,8.50
2023-04-06T14:12:20.952Z,8.07
2023-04-06T14:15:10.598Z,7.40
2023-04-06T14:17:57.693Z,7.83
2023-04-06T14:20:44.932Z,7.80
2023-04-06T14:23:31.358Z,7.83
2023-04-06T14:26:18.426Z,8.00
2023-04-06T14:29:05.121Z,7.90
2023-04-06T14:31:53.158Z,9.10
2023-04-06T14:34:39.998Z,7.93
2023-04-06T14:37:26.423Z,8.50
2023-04-06T14:40:13.649Z,8.07
2023-04-06T14:43:00.485Z,8.20
2023-04-06T14:45:46.986Z,8.17
2023-04-06T14:48:34.659Z,8.77
2023-04-06T14:51:21.644Z,8.63
2023-04-06T14:54:08.288Z,8.73
2023-04-06T14:56:54.629Z,9.07
2023-04-06T14:59:40.993Z,8.40
2023-04-06T15:02:27.824Z,9.13
2023-04-06T15:05:15.989Z,8.90
2023-04-06T15:08:02.703Z,8.43
2023-04-06T15:10:49.427Z,8.77
2023-04-06T15:13:36.331Z,9.30
2023-04-06T15:16:22.667Z,8.90
2023-04-06T15:19:09.671Z,9.63
2023-04-06T15:21:59.043Z,9.57
2023-04-06T15:24:46.938Z,8.60
2023-04-06T15:27:33.305Z,8.97
2023-04-06T15:30:19.798Z,9.40
2023-04-06T15:33:08.454Z,9.47
2023-04-06T15:35:55.623Z,8.63
2023-04-06T15:38:43.943Z,9.57
2023-04-06T15:41:30.747Z,9.47
2023-04-06T15:44:17.687Z,8.90
2023-04-06T15:47:04.320Z,9.67
2023-04-06T15:49:51.103Z,9.33
2023-04-06T15:52:37.625Z,9.40
2023-04-06T15:55:25.750Z,8.97
2023-04-06T15:58:12.448Z,9.97
2023-04-06T16:00:59.251Z,10.33
2023-04-06T16:03:46.609Z,9.37
2023-04-06T16:06:33.577Z,9.10
2023-04-06T16:09:20.026Z,8.77
2023-04-06T16:12:09.012Z,7.70
2023-04-06T16:14:55.747Z,8.50
2023-04-06T16:17:43.381Z,8.07
2023-04-06T16:20:30.449Z,8.33
2023-04-06T16:23:16.999Z,8.13
2023-04-06T16:26:03.348Z,7.47
2023-04-06T16:28:51.413Z,7.77
2023-04-06T16:31:38.114Z,8.20
2023-04-06T16:34:24.944Z,7.80
2023-04-06T16:37:11.332Z,7.10
2023-04-06T16:39:57.959Z,8.17
2023-04-06T16:42:44.901Z,7.27
2023-04-06T16:45:33.167Z,7.73
2023-04-06T16:48:19.592Z,8.17
2023-04-06T16:51:06.663Z,7.47
2023-04-06T16:53:53.463Z,8.67
2023-04-06T16:56:39.851Z,8.27
2023-04-06T16:59:26.379Z,8.63
2023-04-06T17:02:14.240Z,8.13
2023-04-06T17:05:02.429Z,9.33
2023-04-06T17:07:49.175Z,8.60
2023-04-06T17:10:41.576Z,8.40
2023-04-06T17:13:38.442Z,8.63
2023-04-06T17:19:12.586Z,8.17
2023-04-06T17:21:59.303Z,8.80
2023-04-06T17:24:45.637Z,8.23
2023-04-06T17:27:32.478Z,8.23
2023-04-06T17:30:19.150Z,8.53
2023-04-06T17:33:05.851Z,9.20
2023-04-06T17:35:54.026Z,9.17
2023-04-06T17:38:44.046Z,9.10
2023-04-06T17:41:32.733Z,9.30
2023-04-06T17:44:19.085Z,9.13
2023-04-06T17:47:05.590Z,11.33
2023-04-06T17:49:51.932Z,12.87
2023-04-06T17:52:41.515Z,11.07
2023-04-06T17:55:28.053Z,11.37
2023-04-06T17:58:14.722Z,11.90
2023-04-06T18:01:06.191Z,11.63
2023-04-06T18:03:52.771Z,11.40
2023-04-06T18:06:39.968Z,11.40
2023-04-06T18:09:27.768Z,11.07
2023-04-06T18:12:14.335Z,13.07
2023-04-06T18:15:00.855Z,12.20
2023-04-06T18:17:47.465Z,12.27
2023-04-06T18:20:34.467Z,12.80
2023-04-06T18:23:20.935Z,12.70
2023-04-06T18:26:15.620Z,12.33
2023-04-06T18:29:02.304Z,13.30
2023-04-06T18:31:51.952Z,13.30
2023-04-06T18:34:39.485Z,13.20
2023-04-06T18:37:26.246Z,12.77
2023-04-06T18:40:35.032Z,12.90
2023-04-06T18:43:23.031Z,12.60
2023-04-06T18:46:13.824Z,14.73
2023-04-06T18:49:00.512Z,15.13
2023-04-06T18:51:46.845Z,15.63
2023-04-06T18:54:33.605Z,15.20
2023-04-06T18:57:20.189Z,15.67
2023-04-06T19:00:09.345Z,16.00
2023-04-06T19:02:56.226Z,16.40
2023-04-06T19:05:43.024Z,15.90
2023-04-06T19:08:29.530Z,14.90
2023-04-06T19:11:16.315Z,16.03
2023-04-06T19:14:02.762Z,14.70
2023-04-06T19:16:52.537Z,12.83
2023-04-06T19:19:39.089Z,12.60
2023-04-06T19:22:25.787Z,11.67
2023-04-06T19:25:12.670Z,12.43
2023-04-06T19:27:59.289Z,12.87
2023-04-06T19:30:45.989Z,12.50
2023-04-06T19:33:33.830Z,12.63
2023-04-06T19:36:21.725Z,10.73
2023-04-06T19:39:08.099Z,10.23
2023-04-06T19:41:55.078Z,10.03
2023-04-06T19:44:41.522Z,11.43
2023-04-06T19:47:27.924Z,10.77
2023-04-06T19:50:16.181Z,10.97
2023-04-06T19:53:03.375Z,11.37
2023-04-06T19:55:49.965Z,10.50
2023-04-06T19:58:36.375Z,10.73
2023-04-06T20:01:22.861Z,10.70
2023-04-06T20:04:12.431Z,11.13
2023-04-06T20:07:01.014Z,11.30
2023-04-06T20:09:48.261Z,11.23
2023-04-06T20:12:35.441Z,10.60
2023-04-06T20:15:23.145Z,10.90
2023-04-06T20:18:09.867Z,11.40
2023-04-06T20:20:56.887Z,10.73
2023-04-06T20:23:44.461Z,11.30
2023-04-06T20:26:31.069Z,11.57
2023-04-06T20:29:18.030Z,12.63
2023-04-06T20:32:04.588Z,13.67
2023-04-06T20:34:51.435Z,14.43
2023-04-06T20:37:38.851Z,13.30
2023-04-06T20:40:27.521Z,13.77
2023-04-06T20:43:14.058Z,15.13
2023-04-06T20:46:02.422Z,17.57
2023-04-06T20:48:49.689Z,20.70
2023-04-06T20:51:37.084Z,19.63
2023-04-06T20:54:23.773Z,18.17
2023-04-06T20:57:11.720Z,17.83
2023-04-06T20:59:58.205Z,14.97
2023-04-06T21:02:44.797Z,13.80
2023-04-06T21:05:31.595Z,13.00
2023-04-06T21:08:19.129Z,12.80
2023-04-06T21:11:06.311Z,14.43
2023-04-06T21:13:54.303Z,13.27
2023-04-06T21:16:40.829Z,13.90
2023-04-06T21:19:27.964Z,14.00
2023-04-06T21:22:14.690Z,13.40
2023-04-06T21:25:01.190Z,13.03
2023-04-06T21:27:47.617Z,12.80
2023-04-06T21:30:37.206Z,12.30
2023-04-06T21:33:24.375Z,12.23
2023-04-06T21:36:11.173Z,12.53
2023-04-06T21:38:57.852Z,12.47
2023-04-06T21:41:44.209Z,11.77
2023-04-06T21:44:30.756Z,11.60
2023-04-06T21:47:18.490Z,11.27
2023-04-06T21:50:05.709Z,12.53
2023-04-06T21:52:52.207Z,11.77
2023-04-06T21:55:43.788Z,11.33
2023-04-06T21:58:30.470Z,11.43
2023-04-06T22:01:17.726Z,11.80
2023-04-06T22:04:06.457Z,11.67
2023-04-06T22:06:53.013Z,11.17
2023-04-06T22:09:39.273Z,11.40
2023-04-06T22:12:25.767Z,11.10
2023-04-06T22:15:13.707Z,11.10
2023-04-06T22:18:00.948Z,11.80
2023-04-06T22:20:49.642Z,11.50
2023-04-06T22:23:41.968Z,12.30
2023-04-06T22:26:28.666Z,13.13
2023-04-06T22:29:14.977Z,12.30
2023-04-06T22:32:01.351Z,13.00
2023-04-06T22:34:48.349Z,11.53
2023-04-06T22:37:36.014Z,12.07
2023-04-06T22:40:22.669Z,12.23
2023-04-06T22:43:09.348Z,12.57
2023-04-06T22:45:55.736Z,11.73
2023-04-06T22:48:42.057Z,12.40
2023-04-06T22:51:29.107Z,12.33
2023-04-06T22:54:16.990Z,10.73
2023-04-06T22:57:03.665Z,11.93
2023-04-06T22:59:50.204Z,11.87
2023-04-06T23:02:36.803Z,11.43
2023-04-06T23:05:23.874Z,12.57
2023-04-06T23:08:10.663Z,11.17
2023-04-06T23:10:58.772Z,11.57
2023-04-06T23:13:45.372Z,11.50
2023-04-06T23:16:31.800Z,10.03
2023-04-06T23:19:18.309Z,10.97
2023-04-06T23:22:04.658Z,10.40
2023-04-06T23:24:51.409Z,10.63
2023-04-06T23:27:39.132Z,10.70
2023-04-06T23:30:25.666Z,11.20
2023-04-06T23:33:12.168Z,10.40
2023-04-06T23:35:58.555Z,10.47
2023-04-06T23:38:44.984Z,10.67
2023-04-06T23:41:31.701Z,11.20
2023-04-06T23:44:19.898Z,10.23
2023-04-06T23:47:06.608Z,10.37
2023-04-06T23:49:53.029Z,10.90
2023-04-06T23:52:39.554Z,11.27
2023-04-06T23:55:25.748Z,11.57
2023-04-06T23:58:12.161Z,11.40
